createdAt,value
2023-03-19T00:02:17.032Z,5.63
2023-03-19T00:07:19.674Z,5.13
2023-03-19T00:12:21.358Z,6.13
2023-03-19T00:17:22.772Z,4.72
2023-03-19T00:22:24.692Z,4.82
2023-03-19T00:27:26.216Z,4.45
2023-03-19T00:32:27.642Z,4.00
2023-03-19T00:37:29.128Z,3.40
2023-03-19T00:42:31.440Z,3.88
2023-03-19T00:47:32.874Z,3.45
2023-03-19T00:52:34.273Z,3.95
2023-03-19T00:57:35.722Z,3.30
2023-03-19T01:02:37.228Z,3.05
2023-03-19T01:07:38.755Z,2.60
2023-03-19T01:12:40.262Z,3.00
2023-03-19T01:17:42.391Z,3.00
2023-03-19T01:22:44.668Z,2.67
2023-03-19T01:27:46.257Z,2.28
2023-03-19T01:32:47.762Z,2.50
2023-03-19T01:37:49.214Z,2.47
2023-03-19T01:43:03.535Z,2.25
2023-03-19T01:48:06.324Z,2.30
2023-03-19T01:53:12.387Z,2.63
2023-03-19T01:58:14.203Z,2.10
2023-03-19T02:03:16.335Z,2.25
2023-03-19T02:08:21.011Z,2.30
2023-03-19T02:13:23.209Z,2.10
2023-03-19T02:18:25.539Z,2.30
2023-03-19T02:23:50.747Z,2.33
2023-03-19T02:28:53.599Z,2.10
2023-03-19T02:34:00.650Z,1.88
2023-03-19T02:39:03.819Z,2.65
2023-03-19T02:44:06.575Z,2.45
2023-03-19T02:49:07.976Z,2.05
2023-03-19T02:54:09.541Z,2.13
2023-03-19T02:59:10.969Z,2.22
2023-03-19T03:04:12.573Z,2.17
2023-03-19T03:09:14.216Z,2.13
2023-03-19T03:14:15.728Z,1.85
2023-03-19T03:19:17.227Z,2.20
2023-03-19T03:24:18.908Z,2.03
2023-03-19T03:29:20.676Z,2.38
2023-03-19T03:34:22.096Z,1.75
2023-03-19T03:39:23.823Z,1.92
2023-03-19T03:44:25.237Z,1.98
2023-03-19T03:49:27.004Z,2.10
2023-03-19T03:54:28.452Z,2.08
2023-03-19T03:59:29.910Z,2.88
2023-03-19T04:04:31.371Z,1.98
2023-03-19T04:09:33.078Z,2.17
2023-03-19T04:14:34.715Z,1.95
2023-03-19T04:19:36.250Z,1.80
2023-03-19T04:24:37.696Z,1.65
2023-03-19T04:29:39.188Z,1.50
2023-03-19T04:34:41.720Z,2.47
2023-03-19T04:39:44.400Z,1.98
2023-03-19T04:44:45.845Z,2.25
2023-03-19T04:49:47.536Z,2.65
2023-03-19T04:54:48.939Z,2.05
2023-03-19T04:59:50.605Z,2.90
2023-03-19T05:04:52.133Z,2.40
2023-03-19T05:09:54.284Z,2.35
2023-03-19T05:14:55.915Z,2.03
2023-03-19T05:19:57.474Z,1.60
2023-03-19T05:24:59.470Z,2.15
2023-03-19T05:30:02.033Z,3.30
2023-03-19T05:35:04.122Z,3.65
2023-03-19T05:40:07.040Z,1.95
2023-03-19T05:45:08.917Z,6.03
2023-03-19T05:50:11.755Z,2.80
2023-03-19T05:55:13.283Z,2.25
2023-03-19T06:00:16.001Z,2.88
2023-03-19T06:05:17.543Z,2.60
2023-03-19T06:10:19.141Z,2.35
2023-03-19T06:15:21.135Z,2.90
2023-03-19T06:20:22.627Z,2.90
2023-03-19T06:25:24.259Z,2.45
2023-03-19T06:30:26.574Z,2.50
2023-03-19T06:35:28.134Z,2.40
2023-03-19T06:40:29.706Z,3.03
2023-03-19T06:45:31.548Z,2.40
2023-03-19T06:50:33.196Z,2.67
2023-03-19T06:55:35.292Z,2.40
2023-03-19T07:00:37.208Z,2.30
2023-03-19T07:05:38.705Z,2.20
2023-03-19T07:10:40.286Z,2.22
2023-03-19T07:15:41.720Z,2.38
2023-03-19T07:20:43.211Z,2.20
2023-03-19T07:25:44.845Z,1.92
2023-03-19T07:30:46.294Z,2.38
2023-03-19T07:35:48.297Z,1.52
2023-03-19T07:41:01.249Z,1.45
2023-03-19T07:46:03.776Z,1.52
2023-03-19T07:51:05.695Z,1.30
2023-03-19T07:56:07.527Z,1.45
2023-03-19T08:01:09.031Z,1.70
2023-03-19T08:06:10.837Z,1.30
2023-03-19T08:11:12.292Z,1.50
2023-03-19T08:16:13.811Z,1.58
2023-03-19T08:21:15.634Z,1.20
2023-03-19T08:26:17.100Z,1.60
2023-03-19T08:31:18.534Z,1.40
2023-03-19T08:36:20.043Z,1.10
2023-03-19T08:41:22.112Z,1.40
2023-03-19T08:46:24.468Z,1.48
2023-03-19T08:51:26.364Z,1.38
2023-03-19T08:56:27.917Z,1.75
2023-03-19T09:01:29.316Z,1.65
2023-03-19T09:06:31.584Z,1.40
2023-03-19T09:11:33.096Z,1.48
2023-03-19T09:16:34.684Z,1.77
2023-03-19T09:21:36.938Z,1.58
2023-03-19T09:26:38.981Z,1.48
2023-03-19T09:31:40.585Z,1.85
2023-03-19T09:36:42.430Z,1.50
2023-03-19T09:42:08.791Z,2.00
2023-03-19T09:47:27.309Z,1.30
2023-03-19T09:52:43.969Z,1.35
2023-03-19T09:57:46.332Z,1.67
2023-03-19T10:02:52.829Z,1.40
2023-03-19T10:08:22.153Z,1.80
2023-03-19T10:13:37.836Z,1.50
2023-03-19T10:18:49.873Z,1.55
2023-03-19T10:24:02.623Z,1.40
2023-03-19T10:29:14.165Z,1.10
2023-03-19T10:34:37.981Z,1.40
2023-03-19T10:39:41.931Z,1.42
2023-03-19T10:45:02.518Z,1.77
2023-03-19T10:50:04.816Z,1.80
2023-03-19T10:55:24.596Z,1.30
2023-03-19T11:00:32.468Z,1.85
2023-03-19T11:05:35.140Z,1.50
2023-03-19T11:10:37.677Z,1.48
2023-03-19T11:15:39.589Z,2.08
2023-03-19T11:20:41.517Z,1.48
2023-03-19T11:25:54.709Z,2.00
2023-03-19T11:31:08.588Z,1.52
2023-03-19T11:36:16.844Z,1.80
2023-03-19T11:41:50.844Z,1.73
2023-03-19T11:47:27.142Z,1.83
2023-03-19T11:52:38.177Z,1.58
2023-03-19T11:57:47.444Z,1.50
2023-03-19T12:03:05.170Z,1.52
2023-03-19T12:08:17.353Z,1.40
2023-03-19T12:13:27.168Z,1.83
2023-03-19T12:18:44.827Z,1.42
2023-03-19T12:24:17.396Z,1.70
2023-03-19T12:29:28.081Z,1.52
2023-03-19T12:34:49.763Z,1.55
2023-03-19T12:40:07.813Z,1.30
2023-03-19T12:45:35.811Z,1.70
2023-03-19T12:50:41.649Z,1.35
2023-03-19T12:55:50.313Z,2.10
2023-03-19T13:00:58.902Z,1.75
2023-03-19T13:06:06.524Z,1.30
2023-03-19T13:11:17.492Z,1.50
2023-03-19T13:16:42.509Z,1.45
2023-03-19T13:21:46.545Z,1.70
2023-03-19T13:26:49.841Z,1.33
2023-03-19T13:31:52.326Z,1.75
2023-03-19T13:37:02.096Z,1.52
2023-03-19T13:42:09.256Z,1.40
2023-03-19T13:47:25.788Z,1.20
2023-03-19T13:52:27.190Z,1.67
2023-03-19T13:57:36.170Z,1.20
2023-03-19T14:02:37.687Z,2.03
2023-03-19T14:07:41.856Z,1.65
2023-03-19T14:12:45.241Z,1.73
2023-03-19T14:18:03.712Z,2.10
2023-03-19T14:23:11.693Z,2.15
2023-03-19T14:28:18.505Z,1.85
2023-03-19T14:33:32.659Z,1.80
2023-03-19T14:38:39.945Z,1.67
2023-03-19T14:44:09.369Z,1.70
2023-03-19T14:49:26.131Z,1.50
2023-03-19T14:55:08.785Z,1.70
2023-03-19T15:00:18.215Z,1.58
2023-03-19T15:05:31.465Z,1.60
2023-03-19T15:10:44.578Z,1.90
2023-03-19T15:16:33.907Z,1.58
2023-03-19T15:21:37.493Z,1.05
2023-03-19T15:26:39.477Z,1.42
2023-03-19T15:31:52.877Z,1.88
2023-03-19T15:37:04.502Z,1.98
2023-03-19T15:42:07.875Z,1.42
2023-03-19T15:47:15.872Z,2.10
2023-03-19T15:52:21.181Z,1.38
2023-03-19T15:57:24.610Z,1.00
2023-03-19T16:02:28.443Z,1.00
2023-03-19T16:07:42.227Z,1.50
2023-03-19T16:12:49.505Z,1.10
2023-03-19T16:17:50.977Z,1.40
2023-03-19T16:22:58.680Z,1.40
2023-03-19T16:28:00.873Z,1.83
2023-03-19T16:33:04.739Z,1.45
2023-03-19T16:38:28.372Z,1.90
2023-03-19T16:43:34.662Z,1.65
2023-03-19T16:48:36.654Z,1.58
2023-03-19T16:53:38.460Z,2.30
2023-03-19T16:58:43.710Z,3.83
2023-03-19T17:03:48.100Z,3.42
2023-03-19T17:08:49.877Z,2.50
2023-03-19T17:13:53.677Z,2.20
2023-03-19T17:18:56.247Z,2.25
2023-03-19T17:23:59.397Z,1.80
2023-03-19T17:29:01.810Z,1.98
2023-03-19T17:34:16.878Z,3.22
2023-03-19T17:39:19.513Z,2.72
2023-03-19T17:44:20.952Z,3.35
2023-03-19T17:49:37.616Z,3.90
2023-03-19T17:54:39.207Z,10.48
2023-03-19T17:59:40.931Z,6.45
2023-03-19T18:04:42.396Z,3.70
2023-03-19T18:09:43.851Z,3.47
2023-03-19T18:14:45.325Z,4.38
2023-03-19T18:19:50.666Z,3.25
2023-03-19T18:24:52.210Z,2.40
2023-03-19T18:29:53.642Z,1.90
2023-03-19T18:34:55.215Z,1.92
2023-03-19T18:39:56.676Z,2.55
2023-03-19T18:44:58.098Z,3.33
2023-03-19T18:49:59.669Z,3.22
2023-03-19T18:55:01.168Z,1.45
2023-03-19T19:00:02.962Z,1.40
2023-03-19T19:05:04.673Z,3.15
2023-03-19T19:10:07.522Z,2.72
2023-03-19T19:15:18.564Z,2.60
2023-03-19T19:20:23.134Z,3.15
2023-03-19T19:25:27.513Z,4.65
2023-03-19T19:30:29.771Z,4.40
2023-03-19T19:35:32.414Z,4.47
2023-03-19T19:40:34.213Z,3.80
2023-03-19T19:45:37.700Z,2.55
2023-03-19T19:50:39.096Z,2.60
2023-03-19T19:55:41.501Z,2.58
2023-03-19T20:00:47.764Z,2.22
2023-03-19T20:05:55.238Z,2.05
2023-03-19T20:10:57.339Z,1.85
2023-03-19T20:15:59.887Z,2.08
2023-03-19T20:21:02.278Z,2.95
2023-03-19T20:26:03.988Z,2.28
2023-03-19T20:31:05.797Z,1.88
2023-03-19T20:36:08.860Z,1.08
2023-03-19T20:41:22.226Z,1.65
2023-03-19T20:46:24.636Z,1.00
2023-03-19T20:51:31.371Z,1.58
2023-03-19T20:56:37.716Z,1.13
2023-03-19T21:01:39.182Z,1.10
2023-03-19T21:06:52.560Z,1.27
2023-03-19T21:11:54.689Z,2.03
2023-03-19T21:16:56.195Z,2.65
2023-03-19T21:21:57.708Z,1.95
2023-03-19T21:26:59.292Z,1.98
2023-03-19T21:32:00.739Z,2.50
2023-03-19T21:37:02.213Z,2.20
2023-03-19T21:42:09.523Z,2.47
2023-03-19T21:47:13.445Z,2.35
2023-03-19T21:52:17.635Z,2.67
2023-03-19T21:57:19.377Z,2.78
2023-03-19T22:02:26.739Z,2.55
2023-03-19T22:07:28.155Z,2.47
2023-03-19T22:12:32.232Z,2.75
2023-03-19T22:17:34.270Z,2.78
2023-03-19T22:22:35.677Z,2.35
2023-03-19T22:27:38.700Z,2.80
2023-03-19T22:32:40.212Z,1.92
2023-03-19T22:37:41.819Z,2.38
2023-03-19T22:42:44.776Z,2.15
2023-03-19T22:47:46.455Z,2.35
2023-03-19T22:52:48.751Z,1.83
2023-03-19T22:57:50.224Z,1.70
2023-03-19T23:02:57.435Z,1.60
2023-03-19T23:07:59.416Z,1.40
2023-03-19T23:13:00.972Z,1.00
2023-03-19T23:18:03.585Z,1.30
2023-03-19T23:23:06.039Z,1.20
2023-03-19T23:28:17.974Z,0.80
2023-03-19T23:33:20.951Z,0.70
2023-03-19T23:38:23.214Z,0.70
2023-03-19T23:43:27.942Z,0.90
2023-03-19T23:48:35.867Z,0.85
2023-03-19T23:53:37.750Z,0.77
2023-03-19T23:58:43.041Z,0.75
